createdAt,value
2018-08-12T00:01:57.277Z,7.43
2018-08-12T00:04:25.770Z,11.03
2018-08-12T00:06:53.874Z,11.13
2018-08-12T00:09:22.076Z,6.73
2018-08-12T00:11:50.605Z,4.23
2018-08-12T00:14:18.677Z,4.13
2018-08-12T00:16:46.777Z,4.47
2018-08-12T00:19:15.046Z,3.80
2018-08-12T00:21:43.197Z,3.27
2018-08-12T00:24:11.388Z,4.10
2018-08-12T00:26:39.446Z,3.20
2018-08-12T00:29:07.628Z,3.53
2018-08-12T00:31:35.724Z,4.67
2018-08-12T00:34:03.820Z,3.50
2018-08-12T00:36:31.884Z,2.90
2018-08-12T00:39:00.323Z,3.63
2018-08-12T00:41:28.402Z,2.80
2018-08-12T00:43:56.446Z,4.30
2018-08-12T00:46:24.520Z,2.83
2018-08-12T00:48:52.593Z,6.73
2018-08-12T00:51:21.100Z,2.83
2018-08-12T00:53:49.176Z,3.13
2018-08-12T00:56:17.242Z,2.93
2018-08-12T00:58:45.304Z,3.00
2018-08-12T01:01:13.368Z,6.50
2018-08-12T01:03:41.421Z,3.30
2018-08-12T01:06:09.485Z,2.73
2018-08-12T01:08:37.561Z,3.93
2018-08-12T01:11:05.959Z,2.97
2018-08-12T01:13:34.057Z,3.23
2018-08-12T01:16:02.253Z,5.13
2018-08-12T01:18:30.564Z,5.97
2018-08-12T01:20:58.639Z,4.43
2018-08-12T01:23:26.688Z,3.00
2018-08-12T01:25:54.787Z,4.30
2018-08-12T01:28:22.856Z,3.20
2018-08-12T01:30:50.916Z,3.63
2018-08-12T01:33:19.024Z,4.10
2018-08-12T01:35:47.133Z,3.30
2018-08-12T01:38:15.380Z,3.83
2018-08-12T01:40:43.745Z,3.13
2018-08-12T01:43:12.287Z,2.60
2018-08-12T01:45:40.391Z,2.70
2018-08-12T01:48:08.542Z,4.87
2018-08-12T01:50:36.664Z,3.13
2018-08-12T01:53:04.758Z,2.80
2018-08-12T01:55:32.851Z,4.97
2018-08-12T01:58:01.016Z,2.60
2018-08-12T02:00:29.459Z,4.23
2018-08-12T02:02:57.569Z,3.33
2018-08-12T02:05:25.684Z,4.10
2018-08-12T02:07:53.770Z,4.07
2018-08-12T02:10:22.300Z,3.10
2018-08-12T02:12:50.367Z,3.07
2018-08-12T02:15:18.844Z,8.17
2018-08-12T02:17:47.420Z,5.87
2018-08-12T02:20:15.693Z,2.83
2018-08-12T02:22:43.893Z,3.27
2018-08-12T02:25:12.379Z,3.23
2018-08-12T02:27:40.436Z,3.13
2018-08-12T02:30:10.381Z,4.30
2018-08-12T02:32:38.441Z,3.03
2018-08-12T02:35:06.742Z,2.83
2018-08-12T02:37:34.830Z,3.43
2018-08-12T02:40:03.119Z,3.27
2018-08-12T02:42:31.231Z,3.10
2018-08-12T02:44:59.366Z,3.80
2018-08-12T02:47:27.809Z,3.70
2018-08-12T02:49:55.979Z,3.50
2018-08-12T02:52:24.257Z,3.63
2018-08-12T02:54:52.685Z,3.60
2018-08-12T02:57:20.961Z,4.03
2018-08-12T02:59:49.027Z,4.87
2018-08-12T03:02:17.439Z,4.90
2018-08-12T03:04:45.542Z,9.23
2018-08-12T03:07:13.601Z,10.00
2018-08-12T03:09:41.729Z,6.20
2018-08-12T03:12:09.772Z,8.43
2018-08-12T03:14:37.949Z,8.10
2018-08-12T03:17:06.041Z,6.00
2018-08-12T03:19:34.105Z,7.33
2018-08-12T03:22:02.520Z,8.33
2018-08-12T03:24:30.576Z,7.87
2018-08-12T03:26:58.822Z,5.40
2018-08-12T03:29:26.880Z,6.67
2018-08-12T03:31:54.950Z,7.40
2018-08-12T03:34:23.076Z,6.90
2018-08-12T03:36:51.143Z,6.63
2018-08-12T03:39:19.214Z,4.93
2018-08-12T03:41:47.388Z,5.40
2018-08-12T03:44:15.455Z,6.70
2018-08-12T03:46:43.533Z,4.43
2018-08-12T03:49:11.605Z,3.60
2018-08-12T03:51:39.687Z,3.87
2018-08-12T03:54:07.768Z,3.60
2018-08-12T03:56:37.574Z,3.50
2018-08-12T03:59:05.663Z,4.20
2018-08-12T04:01:33.828Z,4.23
2018-08-12T04:04:01.885Z,5.00
2018-08-12T04:06:29.932Z,4.37
2018-08-12T04:08:58.069Z,3.97
2018-08-12T04:11:26.125Z,3.90
2018-08-12T04:13:54.320Z,3.70
2018-08-12T04:16:22.392Z,3.70
2018-08-12T04:18:50.516Z,7.90
2018-08-12T04:21:18.868Z,2.83
2018-08-12T04:23:46.982Z,6.80
2018-08-12T04:26:15.235Z,4.63
2018-08-12T04:28:43.329Z,4.90
2018-08-12T04:31:11.432Z,5.13
2018-08-12T04:33:39.604Z,4.40
2018-08-12T04:36:07.664Z,6.67
2018-08-12T04:38:35.728Z,9.40
2018-08-12T04:41:03.872Z,5.80
2018-08-12T04:43:32.318Z,4.73
2018-08-12T04:46:00.391Z,5.00
2018-08-12T04:48:28.484Z,7.50
2018-08-12T04:50:56.582Z,6.33
2018-08-12T04:53:24.689Z,6.57
2018-08-12T04:55:52.749Z,3.87
2018-08-12T04:58:20.821Z,4.90
2018-08-12T05:00:48.893Z,4.47
2018-08-12T05:03:16.953Z,4.10
2018-08-12T05:05:45.033Z,4.30
2018-08-12T05:08:13.241Z,4.37
2018-08-12T05:10:41.304Z,7.93
2018-08-12T05:13:09.387Z,5.07
2018-08-12T05:15:37.508Z,5.77
2018-08-12T05:18:05.676Z,5.53
2018-08-12T05:20:33.780Z,6.37
2018-08-12T05:23:01.913Z,6.77
2018-08-12T05:25:29.987Z,6.80
2018-08-12T05:27:58.396Z,8.20
2018-08-12T05:30:26.841Z,5.33
2018-08-12T05:32:55.304Z,4.33
2018-08-12T05:35:23.420Z,5.50
2018-08-12T05:37:51.569Z,4.00
2018-08-12T05:40:19.716Z,4.37
2018-08-12T05:42:47.792Z,3.80
2018-08-12T05:45:16.220Z,4.27
2018-08-12T05:47:44.367Z,3.37
2018-08-12T05:50:12.617Z,5.67
2018-08-12T05:52:40.693Z,4.80
2018-08-12T05:55:08.906Z,4.10
2018-08-12T05:57:37.073Z,4.10
2018-08-12T06:00:05.640Z,4.07
2018-08-12T06:02:33.735Z,4.13
2018-08-12T06:05:01.999Z,7.17
2018-08-12T06:07:30.256Z,3.50
2018-08-12T06:09:58.644Z,4.80
2018-08-12T06:12:26.724Z,3.90
2018-08-12T06:14:54.798Z,4.23
2018-08-12T06:17:22.910Z,5.40
2018-08-12T06:19:51.144Z,3.80
2018-08-12T06:22:19.241Z,3.47
2018-08-12T06:24:47.301Z,3.90
2018-08-12T06:27:15.380Z,3.43
2018-08-12T06:29:43.443Z,3.70
2018-08-12T06:32:11.499Z,4.03
2018-08-12T06:34:39.566Z,7.73
2018-08-12T06:37:07.672Z,8.03
2018-08-12T06:39:35.747Z,3.07
2018-08-12T06:42:04.048Z,4.60
2018-08-12T06:44:32.169Z,5.73
2018-08-12T06:47:00.236Z,3.83
2018-08-12T06:49:28.354Z,3.90
2018-08-12T06:51:56.437Z,3.80
2018-08-12T06:54:24.656Z,11.77
2018-08-12T06:56:52.757Z,8.80
2018-08-12T06:59:20.823Z,9.87
2018-08-12T07:01:48.885Z,5.23
2018-08-12T07:04:16.957Z,3.87
2018-08-12T07:06:45.039Z,6.03
2018-08-12T07:09:13.139Z,3.80
2018-08-12T07:11:41.176Z,4.27
2018-08-12T07:14:09.264Z,4.13
2018-08-12T07:16:37.993Z,11.27
2018-08-12T07:19:07.351Z,2.93
2018-08-12T07:21:35.465Z,4.03
2018-08-12T07:24:03.625Z,5.87
2018-08-12T07:26:32.337Z,6.67
2018-08-12T07:29:00.441Z,6.00
2018-08-12T07:31:28.712Z,5.70
2018-08-12T07:33:56.793Z,7.63
2018-08-12T07:36:25.218Z,2.60
2018-08-12T07:38:53.305Z,4.60
2018-08-12T07:41:21.424Z,2.80
2018-08-12T07:43:49.507Z,2.70
2018-08-12T07:46:17.938Z,4.43
2018-08-12T07:48:47.834Z,4.63
2018-08-12T07:51:16.061Z,3.90
2018-08-12T07:53:44.361Z,2.13
2018-08-12T07:56:12.416Z,2.30
2018-08-12T07:58:40.580Z,2.80
2018-08-12T08:01:08.663Z,2.30
2018-08-12T08:03:36.711Z,2.27
2018-08-12T08:06:04.846Z,9.70
2018-08-12T08:08:33.088Z,1.70
2018-08-12T08:11:01.205Z,6.43
2018-08-12T08:13:29.243Z,2.93
2018-08-12T08:15:57.356Z,1.73
2018-08-12T08:18:25.404Z,2.07
2018-08-12T08:20:53.474Z,2.27
2018-08-12T08:23:21.559Z,3.20
2018-08-12T08:25:49.869Z,2.03
2018-08-12T08:28:18.100Z,3.47
2018-08-12T08:30:46.396Z,2.00
2018-08-12T08:33:14.841Z,3.30
2018-08-12T08:35:42.937Z,1.60
2018-08-12T08:38:11.074Z,1.80
2018-08-12T08:40:39.661Z,2.13
2018-08-12T08:43:07.748Z,1.70
2018-08-12T08:45:35.818Z,1.60
2018-08-12T08:48:04.048Z,1.70
2018-08-12T08:50:32.137Z,2.30
2018-08-12T08:53:00.453Z,4.20
2018-08-12T08:55:29.085Z,1.70
2018-08-12T08:57:57.189Z,2.10
2018-08-12T09:00:25.303Z,2.17
2018-08-12T09:02:53.942Z,1.67
2018-08-12T09:05:23.060Z,1.63
2018-08-12T09:07:51.607Z,2.10
2018-08-12T09:10:20.236Z,2.00
2018-08-12T09:12:48.358Z,3.17
2018-08-12T09:15:17.384Z,1.93
2018-08-12T09:17:45.984Z,1.97
2018-08-12T09:20:15.468Z,1.97
2018-08-12T09:22:43.796Z,1.80
2018-08-12T09:25:12.136Z,1.60
2018-08-12T09:27:40.212Z,2.20
2018-08-12T09:30:10.961Z,1.67
2018-08-12T09:32:39.333Z,4.17
2018-08-12T09:35:07.600Z,2.00
2018-08-12T09:37:35.946Z,6.77
2018-08-12T09:40:05.037Z,4.40
2018-08-12T09:42:33.120Z,3.03
2018-08-12T09:45:01.211Z,1.60
2018-08-12T09:47:29.357Z,2.93
2018-08-12T09:49:57.762Z,1.70
2018-08-12T09:52:25.881Z,4.30
2018-08-12T09:54:54.000Z,2.10
2018-08-12T09:57:22.357Z,1.77
2018-08-12T09:59:50.438Z,1.70
2018-08-12T10:02:18.515Z,2.10
2018-08-12T10:04:46.693Z,1.47
2018-08-12T10:07:14.790Z,2.70
2018-08-12T10:09:42.888Z,1.70
2018-08-12T10:12:10.956Z,1.63
2018-08-12T10:14:39.045Z,1.33
2018-08-12T10:17:07.269Z,1.90
2018-08-12T10:19:35.359Z,2.10
2018-08-12T10:22:03.623Z,2.93
2018-08-12T10:24:32.048Z,1.67
2018-08-12T10:27:00.166Z,2.10
2018-08-12T10:29:28.289Z,1.60
2018-08-12T10:31:56.360Z,2.10
2018-08-12T10:34:24.563Z,3.80
2018-08-12T10:36:52.748Z,1.40
2018-08-12T10:39:20.859Z,1.30
2018-08-12T10:41:48.974Z,1.40
2018-08-12T10:44:17.537Z,1.63
2018-08-12T10:46:45.833Z,1.40
2018-08-12T10:49:13.922Z,2.03
2018-08-12T10:51:42.261Z,2.70
2018-08-12T10:54:10.493Z,1.53
2018-08-12T10:56:38.966Z,2.40
2018-08-12T10:59:07.093Z,1.50
2018-08-12T11:01:35.251Z,1.67
2018-08-12T11:04:03.361Z,4.97
2018-08-12T11:06:31.751Z,1.47
2018-08-12T11:08:59.878Z,1.50
2018-08-12T11:11:28.016Z,1.60
2018-08-12T11:13:56.097Z,2.23
2018-08-12T11:16:24.516Z,2.40
2018-08-12T11:18:52.699Z,2.37
2018-08-12T11:21:20.898Z,1.40
2018-08-12T11:23:48.984Z,2.10
2018-08-12T11:26:17.164Z,2.33
2018-08-12T11:28:45.280Z,1.63
2018-08-12T11:31:14.950Z,1.80
2018-08-12T11:33:44.007Z,1.63
2018-08-12T11:36:13.061Z,2.30
2018-08-12T11:38:42.186Z,1.93
2018-08-12T11:41:11.505Z,3.23
2018-08-12T11:43:40.819Z,1.37
2018-08-12T11:46:09.968Z,1.30
2018-08-12T11:48:39.124Z,1.90
2018-08-12T11:51:08.240Z,1.73
2018-08-12T11:53:37.383Z,2.40
2018-08-12T11:56:06.902Z,2.13
2018-08-12T11:58:36.062Z,3.00
2018-08-12T12:01:05.305Z,2.50
2018-08-12T12:03:34.417Z,2.27
2018-08-12T12:06:03.634Z,1.33
2018-08-12T12:08:33.392Z,2.20
2018-08-12T12:11:01.890Z,2.10
2018-08-12T12:13:29.937Z,3.20
2018-08-12T12:15:58.190Z,2.17
2018-08-12T12:18:26.275Z,1.90
2018-08-12T12:20:54.479Z,2.03
2018-08-12T12:23:22.566Z,2.03
2018-08-12T12:25:50.691Z,2.03
2018-08-12T12:28:18.853Z,1.57
2018-08-12T12:30:46.976Z,1.90
2018-08-12T12:33:15.096Z,1.90
2018-08-12T12:35:43.173Z,1.40
2018-08-12T12:38:11.277Z,1.40
2018-08-12T12:40:39.403Z,2.00
2018-08-12T12:43:07.482Z,1.50
2018-08-12T12:45:35.552Z,1.60
2018-08-12T12:48:04.107Z,2.13
2018-08-12T12:50:32.189Z,1.20
2018-08-12T12:53:00.817Z,1.60
2018-08-12T12:55:29.065Z,1.60
2018-08-12T12:57:57.234Z,2.60
2018-08-12T13:00:25.843Z,3.07
2018-08-12T13:02:54.126Z,1.50
2018-08-12T13:05:22.801Z,2.07
2018-08-12T13:07:51.484Z,1.30
2018-08-12T13:10:19.968Z,1.37
2018-08-12T13:12:48.620Z,2.07
2018-08-12T13:15:17.045Z,2.10
2018-08-12T13:17:45.385Z,1.80
2018-08-12T13:20:16.232Z,2.83
2018-08-12T13:22:45.921Z,2.70
2018-08-12T13:25:15.465Z,1.70
2018-08-12T13:27:44.430Z,1.43
2018-08-12T13:30:13.514Z,1.63
2018-08-12T13:32:42.928Z,1.70
2018-08-12T13:35:11.066Z,1.30
2018-08-12T13:37:39.143Z,1.60
2018-08-12T13:40:08.893Z,2.03
2018-08-12T13:42:37.695Z,1.70
2018-08-12T13:45:06.169Z,2.50
2018-08-12T13:47:34.276Z,1.10
2018-08-12T13:50:02.529Z,1.50
2018-08-12T13:52:31.082Z,1.30
2018-08-12T13:54:59.549Z,1.67
2018-08-12T13:57:27.665Z,1.90
2018-08-12T13:59:56.224Z,1.13
2018-08-12T14:02:24.292Z,1.27
2018-08-12T14:04:52.384Z,1.63
2018-08-12T14:07:20.508Z,1.70
2018-08-12T14:09:48.585Z,1.63
2018-08-12T14:12:16.754Z,1.60
2018-08-12T14:14:44.864Z,1.47
2018-08-12T14:17:13.018Z,2.17
2018-08-12T14:19:41.112Z,1.40
2018-08-12T14:22:09.153Z,1.50
2018-08-12T14:24:37.488Z,3.83
2018-08-12T14:27:05.963Z,2.33
2018-08-12T14:29:34.045Z,1.50
2018-08-12T14:32:02.465Z,1.67
2018-08-12T14:34:30.896Z,1.90
2018-08-12T14:36:59.045Z,1.47
2018-08-12T14:39:27.172Z,1.60
2018-08-12T14:41:55.258Z,2.03
2018-08-12T14:44:23.405Z,2.93
2018-08-12T14:46:51.830Z,1.40
2018-08-12T14:49:19.939Z,1.40
2018-08-12T14:51:48.021Z,1.60
2018-08-12T14:54:16.081Z,1.50
2018-08-12T14:59:19.036Z,1.80
2018-08-12T15:01:47.494Z,1.20
2018-08-12T15:04:16.155Z,2.33
2018-08-12T15:06:44.286Z,1.83
2018-08-12T15:09:13.152Z,1.37
2018-08-12T15:11:41.708Z,2.00
2018-08-12T15:14:09.847Z,5.33
2018-08-12T15:16:37.996Z,3.33
2018-08-12T15:19:06.145Z,4.60
2018-08-12T15:21:34.521Z,1.60
2018-08-12T15:24:03.418Z,2.10
2018-08-12T15:26:31.480Z,2.80
2018-08-12T15:28:59.593Z,2.00
2018-08-12T15:31:28.052Z,2.40
2018-08-12T15:33:56.263Z,1.83
2018-08-12T15:36:24.385Z,1.87
2018-08-12T15:38:52.837Z,2.17
2018-08-12T15:41:20.984Z,2.50
2018-08-12T15:43:49.181Z,1.83
2018-08-12T15:46:17.389Z,1.80
2018-08-12T15:48:45.841Z,1.83
2018-08-12T15:51:14.044Z,1.80
2018-08-12T15:53:42.660Z,3.53
2018-08-12T15:56:10.727Z,1.57
2018-08-12T15:58:39.140Z,1.90
2018-08-12T16:01:07.568Z,1.80
2018-08-12T16:03:35.984Z,1.60
2018-08-12T16:06:04.340Z,1.83
2018-08-12T16:08:32.413Z,1.40
2018-08-12T16:11:00.496Z,1.60
2018-08-12T16:13:28.594Z,4.50
2018-08-12T16:15:56.753Z,2.40
2018-08-12T16:18:24.961Z,2.87
2018-08-12T16:20:53.070Z,3.23
2018-08-12T16:23:21.152Z,2.80
2018-08-12T16:25:49.580Z,2.00
2018-08-12T16:28:17.997Z,2.10
2018-08-12T16:30:46.106Z,2.63
2018-08-12T16:33:14.261Z,2.23
2018-08-12T16:35:42.354Z,1.57
2018-08-12T16:38:10.489Z,3.27
2018-08-12T16:40:38.635Z,3.30
2018-08-12T16:43:07.231Z,2.70
2018-08-12T16:45:35.339Z,2.47
2018-08-12T16:48:03.460Z,2.57
2018-08-12T16:50:31.588Z,2.17
2018-08-12T16:52:59.697Z,2.50
2018-08-12T16:55:27.818Z,1.93
2018-08-12T16:57:55.920Z,4.77
2018-08-12T17:00:24.525Z,2.00
2018-08-12T17:02:52.986Z,2.10
2018-08-12T17:05:22.051Z,1.50
2018-08-12T17:07:50.438Z,1.73
2018-08-12T17:10:19.364Z,1.50
2018-08-12T17:12:47.482Z,1.33
2018-08-12T17:15:17.350Z,1.70
2018-08-12T17:17:45.955Z,1.37
2018-08-12T17:20:14.929Z,1.70
2018-08-12T17:22:43.815Z,1.93
2018-08-12T17:25:11.901Z,1.63
2018-08-12T17:27:40.104Z,2.70
2018-08-12T17:30:09.103Z,1.90
2018-08-12T17:32:37.358Z,1.53
2018-08-12T17:35:06.098Z,4.83
2018-08-12T17:37:34.466Z,4.03
2018-08-12T17:40:02.987Z,1.37
2018-08-12T17:42:31.152Z,1.30
2018-08-12T17:44:59.264Z,1.60
2018-08-12T17:47:27.372Z,1.90
2018-08-12T17:49:55.520Z,1.73
2018-08-12T17:52:23.732Z,2.07
2018-08-12T17:54:51.936Z,1.70
2018-08-12T17:57:20.258Z,2.00
2018-08-12T17:59:48.397Z,1.73
2018-08-12T18:02:16.497Z,1.60
2018-08-12T18:04:44.628Z,1.50
2018-08-12T18:07:12.755Z,1.50
2018-08-12T18:09:40.844Z,1.60
2018-08-12T18:12:08.932Z,1.73
2018-08-12T18:14:37.084Z,2.03
2018-08-12T18:17:05.588Z,1.83
2018-08-12T18:19:33.738Z,1.87
2018-08-12T18:22:01.867Z,1.60
2018-08-12T18:24:30.033Z,1.97
2018-08-12T18:26:58.150Z,2.60
2018-08-12T18:29:26.410Z,4.20
2018-08-12T18:31:54.612Z,1.63
2018-08-12T18:34:23.133Z,2.10
2018-08-12T18:36:51.758Z,1.67
2018-08-12T18:39:19.912Z,2.53
2018-08-12T18:41:47.996Z,2.30
2018-08-12T18:44:16.062Z,2.20
2018-08-12T18:46:44.184Z,1.73
2018-08-12T18:49:12.321Z,1.70
2018-08-12T18:51:40.435Z,3.50
2018-08-12T18:54:08.611Z,1.70
2018-08-12T18:56:36.785Z,3.17
2018-08-12T18:59:04.945Z,2.33
2018-08-12T19:01:33.049Z,2.07
2018-08-12T19:04:01.149Z,5.33
2018-08-12T19:06:29.255Z,2.83
2018-08-12T19:08:57.601Z,2.30
2018-08-12T19:11:25.677Z,4.13
2018-08-12T19:13:53.939Z,2.57
2018-08-12T19:16:22.033Z,2.30
2018-08-12T19:18:50.148Z,2.63
2018-08-12T19:21:18.245Z,2.27
2018-08-12T19:23:46.336Z,2.27
2018-08-12T19:26:14.452Z,4.50
2018-08-12T19:28:42.639Z,2.30
2018-08-12T19:31:11.064Z,2.30
2018-08-12T19:33:39.212Z,3.33
2018-08-12T19:36:07.472Z,2.33
2018-08-12T19:38:35.653Z,2.90
2018-08-12T19:41:03.747Z,6.93
2018-08-12T19:43:31.897Z,9.10
2018-08-12T19:46:00.556Z,3.90
2018-08-12T19:48:28.641Z,6.70
2018-08-12T19:50:56.727Z,7.50
2018-08-12T19:53:24.853Z,6.30
2018-08-12T19:55:52.932Z,8.63
2018-08-12T19:58:21.016Z,9.23
2018-08-12T20:00:49.155Z,7.10
2018-08-12T20:03:17.300Z,7.67
2018-08-12T20:05:45.430Z,5.37
2018-08-12T20:08:13.700Z,7.17
2018-08-12T20:10:41.780Z,3.50
2018-08-12T20:13:09.901Z,3.97
2018-08-12T20:15:38.073Z,4.03
2018-08-12T20:18:06.137Z,3.50
2018-08-12T20:20:34.601Z,3.23
2018-08-12T20:23:02.653Z,4.13
2018-08-12T20:25:30.897Z,5.90
2018-08-12T20:27:59.389Z,3.67
2018-08-12T20:30:27.638Z,5.30
2018-08-12T20:32:55.733Z,3.60
2018-08-12T20:35:23.925Z,4.30
2018-08-12T20:37:51.988Z,4.57
2018-08-12T20:40:20.160Z,4.10
2018-08-12T20:42:48.310Z,7.10
2018-08-12T20:45:16.393Z,4.23
2018-08-12T20:47:44.497Z,3.83
2018-08-12T20:50:12.693Z,3.57
2018-08-12T20:52:40.821Z,5.17
2018-08-12T20:55:09.352Z,3.87
2018-08-12T20:57:37.514Z,4.27
2018-08-12T21:00:06.066Z,5.30
2018-08-12T21:02:34.232Z,3.57
2018-08-12T21:05:02.392Z,3.47
2018-08-12T21:07:30.629Z,4.63
2018-08-12T21:09:58.710Z,3.40
2018-08-12T21:12:26.828Z,2.87
2018-08-12T21:14:55.316Z,4.30
2018-08-12T21:17:23.724Z,6.40
2018-08-12T21:19:52.157Z,3.63
2018-08-12T21:22:20.213Z,4.80
2018-08-12T21:24:48.405Z,4.70
2018-08-12T21:27:16.491Z,2.90
2018-08-12T21:29:44.560Z,3.17
2018-08-12T21:32:12.637Z,4.03
2018-08-12T21:34:41.475Z,5.40
2018-08-12T21:37:09.600Z,5.53
2018-08-12T21:39:38.043Z,4.17
2018-08-12T21:42:06.416Z,3.60
2018-08-12T21:44:34.493Z,4.27
2018-08-12T21:47:02.580Z,3.50
2018-08-12T21:49:30.676Z,3.53
2018-08-12T21:51:59.108Z,2.93
2018-08-12T21:54:27.220Z,2.97
2018-08-12T21:56:55.324Z,3.60
2018-08-12T21:59:23.397Z,2.93
2018-08-12T22:01:52.209Z,4.07
2018-08-12T22:04:20.309Z,2.90
2018-08-12T22:06:48.532Z,3.70
2018-08-12T22:09:16.585Z,3.27
2018-08-12T22:11:44.677Z,3.13
2018-08-12T22:14:13.181Z,3.43
2018-08-12T22:16:41.405Z,5.57
2018-08-12T22:19:09.484Z,3.70
2018-08-12T22:21:38.012Z,2.93
2018-08-12T22:24:06.255Z,3.90
2018-08-12T22:26:34.420Z,2.97
2018-08-12T22:29:02.608Z,3.10
2018-08-12T22:31:30.716Z,3.13
2018-08-12T22:33:58.795Z,2.50
2018-08-12T22:36:26.871Z,2.80
2018-08-12T22:38:55.285Z,2.97
2018-08-12T22:41:23.701Z,4.93
2018-08-12T22:43:51.866Z,2.73
2018-08-12T22:46:19.972Z,3.90
2018-08-12T22:48:48.031Z,4.80
2018-08-12T22:51:16.185Z,2.37
2018-08-12T22:53:44.257Z,8.50
2018-08-12T22:56:12.341Z,3.20
2018-08-12T22:58:40.732Z,2.77
2018-08-12T23:01:09.252Z,3.10
2018-08-12T23:03:37.415Z,2.50
2018-08-12T23:06:05.697Z,3.27
2018-08-12T23:08:33.794Z,3.70
2018-08-12T23:11:02.248Z,3.73
2018-08-12T23:13:30.665Z,3.30
2018-08-12T23:16:04.949Z,3.07
2018-08-12T23:18:33.022Z,3.97
2018-08-12T23:21:01.088Z,2.90
2018-08-12T23:23:29.201Z,2.50
2018-08-12T23:25:57.277Z,3.63
2018-08-12T23:28:25.350Z,3.27
2018-08-12T23:30:53.590Z,2.70
2018-08-12T23:33:21.684Z,7.73
2018-08-12T23:35:49.760Z,3.20
2018-08-12T23:38:17.805Z,2.40
2018-08-12T23:40:46.192Z,3.23
2018-08-12T23:43:14.301Z,6.27
2018-08-12T23:45:42.508Z,3.40
2018-08-12T23:48:10.924Z,2.60
2018-08-12T23:50:39.337Z,2.90
2018-08-12T23:53:07.785Z,2.93
2018-08-12T23:55:35.841Z,3.13
2018-08-12T23:58:04.765Z,2.90
